Flight Track Log - Related Links

Times and Time Zones

All times are in EDT time to prevent confusion due to time zone crossing. See the N761P flight status page for this flight to view local times or setup timezone preferences in your user account.

Time Position Orientation Groundspeed Altitude Reporting Facility
EDT Latitude Longitude Course Direction KTS MPH feet Rate Location/Type
Tue 12:10:32 AM 41.4833 -81.6947 246° West 97 112 1,900  Level Cleveland Center
Tue 12:11:33 AM 41.4725 -81.7358 251° West 127 146 2,700 843 Climbing Cleveland Center
Tue 12:12:33 AM 41.4764 -81.7858 276° West 123 142 3,600 614 Climbing Cleveland Center
Tue 12:13:40 AM 41.4758 -81.8386 269° West 147 169 4,000 188 Climbing Cleveland Center
Tue 12:14:41 AM 41.4772 -81.8994 272° West 165 190 4,000  Level Cleveland Center
Tue 12:15:41 AM 41.4764 -81.9606 269° West 165 190 4,000  Level Cleveland Center
Tue 12:16:00 AM 41.4548 -81.8361 246° West  Level FlightAware Approximate
Tue 12:16:42 AM 41.4736 -82.0214 267° West 164 189 4,000  Level Cleveland Center
Tue 12:17:42 AM 41.4747 -82.0825 271° West 165 190 4,000  Level Cleveland Center
Tue 12:18:43 AM 41.4700 -82.1433 264° West 163 188 4,000  Level Cleveland Center
Tue 12:19:44 AM 41.4647 -82.2042 263° West 163 188 4,000  Level Cleveland Center
Tue 12:20:44 AM 41.4619 -82.2622 266° West 161 185 4,000  Level Cleveland Center
Tue 12:21:45 AM 41.4569 -82.3231 264° West 163 188 4,000  Level Cleveland Center
Tue 12:22:45 AM 41.4517 -82.3839 263° West 162 186 4,000  Level Cleveland Center
Tue 12:23:46 AM 41.4486 -82.4447 266° West 162 186 4,000  Level Cleveland Center
Tue 12:24:47 AM 41.4456 -82.5056 266° West 164 189 4,000  Level Cleveland Center
Tue 12:25:47 AM 41.4528 -82.5667 279° West 168 193 4,000  Level Cleveland Center
Tue 12:26:42 AM 41.4686 -82.6228 291° West 168 193 4,000  Level Cleveland Center
Tue 12:27:42 AM 41.4781 -82.6811 282° West 168 193 4,000  Level Cleveland Center
Tue 12:28:43 AM 41.4831 -82.7422 276° West 167 192 4,000  Level Cleveland Center
Tue 12:29:44 AM 41.4797 -82.8033 266° West 161 185 4,000  Level Cleveland Center
Tue 12:31:00 AM 41.5092 -82.8098 351° North  Level Estimated
Tue 12:38:00 AM 41.6718 -82.8456 351° North  Level Estimated
Tue 12:39:00 AM 41.6950 -82.8507 351° North  Level Estimated
Tue 12:40:00 AM 41.7182 -82.8558 351° North  Level Estimated
Tue 12:41:00 AM 41.7415 -82.8610 351° North  Level Estimated
Tue 12:42:00 AM 41.7647 -82.8661 351° North  Level Estimated
Tue 12:43:00 AM 41.7879 -82.8712 351° North  Level Estimated
Tue 12:44:00 AM 41.8112 -82.8764 351° North  Level Estimated
Tue 12:45:00 AM 41.8344 -82.8815 351° North  Level Estimated
Tue 12:46:00 AM 41.8576 -82.8867 351° North  Level Estimated
Tue 12:47:00 AM 41.8809 -82.8918 351° North  Level Estimated
Tue 12:48:00 AM 41.9041 -82.8970 351° North  Level Estimated
Tue 12:49:00 AM 41.9273 -82.9022 351° North  Level Estimated
Tue 12:50:00 AM 41.9505 -82.9073 351° North  Level Estimated
Tue 12:51:00 AM 41.9738 -82.9125 351° North  Level Estimated
Tue 12:52:00 AM 41.9970 -82.9177 351° North  Level Estimated
Tue 12:53:00 AM 42.0202 -82.9229 351° North  Level Estimated
Tue 12:54:00 AM 42.0435 -82.9280 351° North  Level Estimated
Tue 12:55:00 AM 42.0667 -82.9332 351° North  Level Estimated
Tue 12:56:00 AM 42.0899 -82.9384 351° North  Level Estimated
Tue 12:57:00 AM 42.1132 -82.9436 351° North  Level Estimated
Tue 12:58:00 AM 42.1364 -82.9488 351° North  Level Estimated
Tue 12:59:00 AM 42.1596 -82.9540 351° North  Level Estimated
Tue 01:00:00 AM 42.1828 -82.9592 351° North  Level Estimated
Tue 01:01:00 AM 42.2061 -82.9644 351° North  Level Estimated
Tue 01:02:00 AM 42.2293 -82.9696 351° North  Level Estimated
Tue 01:03:00 AM 42.2525 -82.9749 351° North  Level Estimated
Tue 01:04:00 AM 42.2758 -82.9801 351° North  Level Estimated
Tue 01:05:00 AM 42.2990 -82.9853 351° North  Level Estimated
Tue 01:06:00 AM 42.3222 -82.9905 351° North  Level Estimated
Tue 01:07:00 AM 42.3455 -82.9958 351° North  Level Estimated
Tue 01:08:00 AM 42.3687 -83.0010 351° North  Level Estimated
Tue 01:09:00 AM 42.3919 -83.0062 351° North  Level Estimated
Tue 01:10:00 AM 42.4093 -83.0102 351° North  Level Estimated
Tue 01:11:00 AM 42.4093 -83.0102 208° Southwest  Level Estimated
Tue 01:12:00 AM 42.4093 -83.0102 208° Southwest  Level Estimated
Tue 01:13:00 AM 42.4093 -83.0102 208° Southwest  Level Estimated
Tue 01:14:00 AM 42.4093 -83.0102 208° Southwest  Level Estimated
Tue 01:15:00 AM 42.4093 -83.0102 208° Southwest  Level Estimated
Tue 01:16:00 AM 42.4093 -83.0102 208° Southwest  Level Estimated
Tue 01:17:00 AM 42.4093 -83.0102 208° Southwest  Level Estimated
Tue 01:18:00 AM 42.4093 -83.0102 208° Southwest  Level Estimated
Tue 01:19:00 AM 42.4093 -83.0102 208° Southwest  Level Estimated
Tue 01:20:00 AM 42.4093 -83.0102 208° Southwest  Level Estimated
Tue 01:21:00 AM 42.4093 -83.0102 208° Southwest  Level Estimated
Tue 01:22:00 AM 42.4093 -83.0102 208° Southwest  Level Estimated
Tue 01:23:00 AM 42.4093 -83.0102 208° Southwest  Level Estimated
Tue 01:24:00 AM 42.4093 -83.0102 208° Southwest  Level Estimated
Tue 01:25:00 AM 42.4093 -83.0102 208° Southwest  Level Estimated
Tue 01:26:00 AM 42.4093 -83.0102 208° Southwest  Level Estimated
Tue 01:27:00 AM 42.4093 -83.0102 208° Southwest  Level Estimated
Tue 01:28:00 AM 42.4093 -83.0102 208° Southwest  Level Estimated
Tue 01:29:00 AM 42.4093 -83.0102 208° Southwest  Level Estimated
Tue 01:30:00 AM 42.4093 -83.0102 208° Southwest  Level Estimated
Tue 01:31:00 AM 42.4093 -83.0102 208° Southwest  Level Estimated
Tue 01:32:00 AM 42.4093 -83.0102 208° Southwest  Level Estimated
Tue 01:33:00 AM 42.4093 -83.0102 208° Southwest  Level Estimated
Tue 01:34:00 AM 42.4093 -83.0102 208° Southwest  Level Estimated
Tue 01:35:00 AM 42.4093 -83.0102 208° Southwest  Level Estimated
Tue 01:36:00 AM 42.4093 -83.0102 208° Southwest  Level Estimated

Login

Don't have an account? Register now (free) for customized features, flight alerts, and more!